Time;durP1;ratioP1;P1;durP2;ratioP2;P2;SDS_P1;SDS_P2;PMS_P1;PMS_P2;Temp;Humidity;BMP_temperature;BMP_pressure;BME280_temperature;BME280_humidity;BME280_pressure;Samples;Min_cycle;Max_cycle;Signal;HPM_P1;HPM_P2
2023/07/17 00:01:33;;;;;;;3.65;1.90;;;18.30;99.90;;;18.27;99.93;97443.03;4987233;28;20030;-36
2023/07/17 00:03:59;;;;;;;3.95;2.20;;;18.40;99.90;;;18.21;100.00;97426.56;4993441;28;20569;-37
2023/07/17 00:06:25;;;;;;;3.38;2.00;;;18.40;99.90;;;18.32;100.00;97445.38;4987268;28;20493;-36
2023/07/17 00:08:51;;;;;;;3.53;2.00;;;18.40;99.90;;;18.32;100.00;97448.03;4987799;28;20084;-36
2023/07/17 00:11:16;;;;;;;4.97;2.08;;;18.40;99.90;;;18.37;100.00;97445.91;4988886;28;20525;-36
2023/07/17 00:13:42;;;;;;;3.97;1.80;;;18.50;99.90;;;18.47;98.35;97452.34;4991503;28;20189;-36
2023/07/17 00:16:08;;;;;;;4.50;2.20;;;18.60;99.90;;;18.58;97.15;97451.63;4989522;28;20041;-36
2023/07/17 00:18:34;;;;;;;4.45;2.03;;;18.70;99.90;;;18.66;97.81;97453.75;4989317;28;20393;-36
2023/07/17 00:21:01;;;;;;;5.20;1.92;;;18.70;99.90;;;18.68;98.75;97455.38;4992769;28;20038;-36
2023/07/17 00:23:27;;;;;;;4.55;2.40;;;18.80;99.90;;;18.68;96.42;97458.03;4986208;28;20523;-36
2023/07/17 00:25:53;;;;;;;2.92;1.83;;;18.80;99.90;;;18.64;94.73;97440.50;4992683;28;20251;-36
2023/07/17 00:28:19;;;;;;;3.25;1.75;;;18.80;99.90;;;18.79;94.15;97456.44;4990291;28;20046;-36
2023/07/17 00:30:45;;;;;;;2.95;1.60;;;18.90;99.90;;;18.83;93.37;97444.63;4987066;28;20117;-37
2023/07/17 00:33:11;;;;;;;5.72;2.10;;;18.90;99.90;;;18.86;94.85;97436.38;4983228;28;20030;-36
2023/07/17 00:35:37;;;;;;;2.85;2.03;;;19.00;99.90;;;18.84;97.64;97431.16;4977730;28;20472;-36
2023/07/17 00:38:03;;;;;;;3.88;2.03;;;18.90;99.90;;;18.83;98.86;97434.78;4983913;28;20032;-37
2023/07/17 00:40:30;;;;;;;3.17;1.83;;;18.90;99.90;;;18.81;99.91;97446.50;4981998;28;20022;-37
2023/07/17 00:43:02;;;;;;;6.82;2.15;;;18.90;99.90;;;18.77;98.90;97445.00;4987623;28;20061;-36
2023/07/17 00:45:32;;;;;;;3.95;1.65;;;18.90;99.90;;;18.73;96.86;97427.47;4986878;28;20045;-36
2023/07/17 00:47:58;;;;;;;2.95;1.77;;;18.90;99.90;;;18.80;96.62;97429.59;4988640;28;20594;-37
2023/07/17 00:50:25;;;;;;;2.80;1.90;;;18.90;99.90;;;18.85;95.96;97437.34;4983678;28;20414;-36
2023/07/17 00:52:51;;;;;;;2.55;1.80;;;18.90;99.90;;;18.88;95.12;97443.34;5000608;28;20625;-36
2023/07/17 00:55:18;;;;;;;3.28;2.00;;;19.00;99.90;;;18.89;95.29;97433.50;4985200;28;21969;-36
2023/07/17 00:57:44;;;;;;;2.78;1.80;;;19.00;99.90;;;18.92;94.47;97446.66;4989019;28;20030;-36
2023/07/17 01:00:12;;;;;;;5.55;2.13;;;19.00;99.90;;;18.93;93.26;97448.34;4983543;28;23596;-36
2023/07/17 01:02:39;;;;;;;3.72;1.70;;;19.00;99.90;;;18.84;92.87;97431.16;4988605;28;20042;-36
2023/07/17 01:05:05;;;;;;;3.70;1.90;;;19.00;99.90;;;18.97;93.14;97448.97;4984218;28;20113;-37
2023/07/17 01:07:31;;;;;;;5.20;2.13;;;19.10;99.90;;;18.98;92.36;97448.03;4985327;28;20040;-36
2023/07/17 01:09:57;;;;;;;6.30;2.20;;;19.00;99.90;;;18.99;90.10;97455.09;4988867;28;20024;-36
2023/07/17 01:12:23;;;;;;;3.13;1.77;;;19.10;99.90;;;19.02;89.58;97449.50;4983335;28;20805;-36
2023/07/17 01:14:48;;;;;;;3.95;2.13;;;19.10;99.90;;;19.03;88.87;97449.41;4986258;28;20026;-36
2023/07/17 01:17:14;;;;;;;5.00;2.53;;;19.10;99.90;;;19.01;88.35;97443.31;4982687;28;20092;-37
2023/07/17 01:19:40;;;;;;;6.45;2.15;;;19.10;99.90;;;19.02;89.48;97446.84;4986655;28;20501;-36
2023/07/17 01:22:20;;;;;;;4.88;2.22;;;19.10;99.90;;;19.00;89.70;97459.47;4983986;28;20449;-37
2023/07/17 01:24:46;;;;;;;4.20;1.98;;;19.10;99.90;;;19.00;90.11;97470.16;4988904;28;20036;-37
2023/07/17 01:27:13;;;;;;;5.28;1.90;;;19.10;99.90;;;18.97;90.65;97483.72;4984353;28;20034;-36
2023/07/17 01:29:38;;;;;;;3.78;2.10;;;19.10;99.90;;;18.95;90.26;97469.59;4987557;28;20112;-36
2023/07/17 01:32:04;;;;;;;3.33;1.80;;;19.10;99.90;;;18.95;91.12;97465.16;4985858;28;20481;-37
2023/07/17 01:34:30;;;;;;;3.17;1.95;;;19.00;99.90;;;18.95;93.06;97467.81;4990409;28;20060;-36
2023/07/17 01:36:56;;;;;;;3.67;2.10;;;19.00;99.90;;;18.94;92.77;97458.06;4991106;28;20038;-36
2023/07/17 01:39:24;;;;;;;3.95;1.90;;;19.00;99.90;;;18.93;93.04;97458.19;4984643;28;20414;-36
2023/07/17 01:41:50;;;;;;;3.25;1.58;;;19.00;99.90;;;18.95;95.11;97466.94;4986377;28;20553;-36
2023/07/17 01:44:16;;;;;;;5.90;1.73;;;19.00;99.90;;;18.93;93.63;97460.84;4989304;28;20049;-37
2023/07/17 01:46:41;;;;;;;3.80;1.70;;;19.00;99.90;;;18.89;95.27;97457.53;4987875;28;20030;-36
2023/07/17 01:49:07;;;;;;;2.25;1.80;;;19.00;99.90;;;18.77;95.55;97448.53;4990671;28;20022;-37
2023/07/17 01:51:33;;;;;;;3.30;1.92;;;18.90;99.90;;;18.81;95.83;97457.19;4984525;28;20032;-36
2023/07/17 01:53:59;;;;;;;3.53;1.83;;;18.90;99.90;;;18.76;97.81;97459.34;4989314;28;20444;-36
2023/07/17 01:56:25;;;;;;;2.70;1.67;;;18.80;99.90;;;18.74;99.33;97466.59;4986907;28;20030;-36
2023/07/17 01:58:51;;;;;;;3.33;1.73;;;18.80;99.90;;;18.66;100.00;97457.31;4988441;28;20413;-36
2023/07/17 02:01:16;;;;;;;3.97;2.03;;;18.80;99.90;;;18.68;100.00;97459.84;4988233;28;20111;-37
2023/07/17 02:03:42;;;;;;;2.60;1.52;;;18.80;99.90;;;18.66;100.00;97454.63;4974011;28;20040;-36
2023/07/17 02:06:08;;;;;;;5.45;1.80;;;18.80;99.90;;;18.48;100.00;97435.38;4981497;28;20025;-37
2023/07/17 02:08:34;;;;;;;5.03;1.50;;;18.70;99.90;;;18.66;100.00;97456.41;4988861;28;20018;-36
2023/07/17 02:10:59;;;;;;;2.90;1.77;;;18.80;99.90;;;18.66;100.00;97448.41;4979623;28;20030;-37
2023/07/17 02:13:25;;;;;;;3.40;1.80;;;18.80;99.90;;;18.64;100.00;97453.84;4980986;28;20096;-37
2023/07/17 02:15:51;;;;;;;3.80;1.52;;;18.80;99.90;;;18.62;100.00;97447.78;4979542;28;20030;-36
2023/07/17 02:18:17;;;;;;;4.95;1.90;;;18.70;99.90;;;18.62;100.00;97454.94;4981571;28;20133;-36
2023/07/17 02:20:42;;;;;;;4.13;2.00;;;18.70;99.90;;;18.58;100.00;97464.13;4981910;28;20034;-37
2023/07/17 02:23:08;;;;;;;3.28;1.75;;;18.70;99.90;;;18.57;100.00;97465.06;4984462;28;20120;-38
2023/07/17 02:25:34;;;;;;;2.35;1.85;;;18.70;99.90;;;18.56;100.00;97458.03;4987100;28;20035;-36
2023/07/17 02:28:00;;;;;;;4.07;2.20;;;18.60;99.90;;;18.54;100.00;97459.94;4984433;28;20444;-36
2023/07/17 02:30:25;;;;;;;2.95;1.83;;;18.60;99.90;;;18.52;100.00;97473.41;4978482;28;20047;-37
2023/07/17 02:32:51;;;;;;;2.92;1.80;;;18.60;99.90;;;18.44;100.00;97455.22;4983342;28;20033;-36
2023/07/17 02:35:17;;;;;;;2.70;1.60;;;18.60;99.90;;;18.47;100.00;97481.72;4973823;28;20359;-36
2023/07/17 02:37:43;;;;;;;4.00;1.70;;;18.60;99.90;;;18.38;100.00;97461.00;4984853;28;20929;-37
2023/07/17 02:40:12;;;;;;;3.28;2.00;;;18.60;99.90;;;18.41;100.00;97471.47;4985634;28;20041;-37
2023/07/17 02:42:38;;;;;;;3.92;2.10;;;18.50;99.90;;;18.29;100.00;97465.13;4987876;28;20033;-37
2023/07/17 02:45:07;;;;;;;3.20;1.83;;;18.50;99.90;;;18.37;100.00;97477.97;4989432;28;20494;-37
2023/07/17 02:47:33;;;;;;;3.05;1.98;;;18.50;99.90;;;18.28;100.00;97471.41;4966164;28;20045;-36
2023/07/17 02:49:58;;;;;;;4.50;1.90;;;18.40;99.90;;;18.28;100.00;97482.09;4987232;28;20037;-36
2023/07/17 02:52:24;;;;;;;3.35;1.65;;;18.40;99.90;;;18.22;100.00;97489.69;4982226;28;20034;-37
2023/07/17 02:54:50;;;;;;;3.20;1.77;;;18.30;99.90;;;18.18;100.00;97493.50;4989261;28;20072;-37
2023/07/17 02:57:16;;;;;;;2.85;2.00;;;18.30;99.90;;;18.12;100.00;97497.44;4989647;28;20034;-37
2023/07/17 02:59:42;;;;;;;3.28;1.90;;;18.20;99.90;;;18.06;100.00;97497.84;4986010;28;20583;-39
2023/07/17 03:02:08;;;;;;;2.95;1.70;;;18.20;99.90;;;18.01;100.00;97500.81;4991013;28;20049;-36
2023/07/17 03:04:34;;;;;;;5.50;2.00;;;18.10;99.90;;;17.93;100.00;97492.47;4990280;28;20197;-36
2023/07/17 03:07:00;;;;;;;4.60;1.80;;;18.10;99.90;;;17.91;100.00;97507.72;4991739;28;20034;-36
2023/07/17 03:09:28;;;;;;;3.03;2.08;;;18.00;99.90;;;17.92;100.00;97504.91;4987434;28;20525;-36
2023/07/17 03:11:55;;;;;;;5.13;1.92;;;18.00;99.90;;;17.94;100.00;97499.50;4989396;28;20037;-36
2023/07/17 03:14:20;;;;;;;3.85;2.00;;;18.10;99.90;;;17.97;100.00;97499.28;4987086;28;20540;-37
2023/07/17 03:16:46;;;;;;;4.75;1.90;;;18.10;99.90;;;17.98;100.00;97500.13;4991677;28;20131;-36
2023/07/17 03:19:12;;;;;;;5.00;2.10;;;18.10;99.90;;;18.05;100.00;97506.78;4983209;28;20088;-36
2023/07/17 03:21:37;;;;;;;2.35;1.80;;;18.20;99.90;;;18.10;100.00;97518.88;4985826;28;20468;-36
2023/07/17 03:24:07;;;;;;;3.97;1.90;;;18.20;99.90;;;18.10;100.00;97521.53;4985080;28;20038;-37
2023/07/17 03:26:32;;;;;;;3.72;1.90;;;18.20;99.90;;;18.09;100.00;97519.84;4985527;28;20029;-36
2023/07/17 03:28:58;;;;;;;5.22;2.28;;;18.20;99.90;;;18.05;100.00;97513.00;4984747;28;20030;-36
2023/07/17 03:31:24;;;;;;;3.58;2.05;;;18.20;99.90;;;18.02;100.00;97515.88;4989082;28;20412;-36
2023/07/17 03:33:50;;;;;;;4.32;2.08;;;18.10;99.90;;;18.00;100.00;97523.13;4991616;28;20026;-36
2023/07/17 03:36:15;;;;;;;3.80;2.03;;;18.10;99.90;;;17.99;100.00;97516.06;4985497;28;20105;-37
2023/07/17 03:38:41;;;;;;;3.72;1.92;;;18.10;99.90;;;17.98;100.00;97522.38;4991649;28;20038;-37
2023/07/17 03:41:07;;;;;;;2.22;1.85;;;18.10;99.90;;;17.97;100.00;97509.13;4986222;28;20440;-37
2023/07/17 03:43:33;;;;;;;3.55;1.83;;;18.10;99.90;;;17.97;100.00;97506.47;4989357;28;20033;-36
2023/07/17 03:45:58;;;;;;;3.25;1.90;;;18.10;99.90;;;17.98;100.00;97511.69;4987235;28;20378;-36
2023/07/17 03:48:24;;;;;;;3.08;1.92;;;18.10;99.90;;;17.97;100.00;97515.31;4990519;28;20048;-36
2023/07/17 03:50:49;;;;;;;4.25;2.20;;;18.10;99.90;;;18.00;100.00;97520.44;4987817;28;20477;-36
2023/07/17 03:53:15;;;;;;;3.72;2.05;;;18.10;99.90;;;17.98;100.00;97516.16;4990536;28;20026;-36
2023/07/17 03:55:41;;;;;;;3.80;1.83;;;18.10;99.90;;;17.95;100.00;97514.56;4984261;28;20068;-36
2023/07/17 03:58:07;;;;;;;3.25;1.95;;;18.10;99.90;;;17.90;100.00;97520.19;4985254;28;20037;-36
2023/07/17 04:00:32;;;;;;;3.70;2.10;;;18.00;99.90;;;17.82;100.00;97522.47;4983304;28;29747;-37
2023/07/17 04:02:58;;;;;;;2.40;1.80;;;17.90;99.90;;;17.72;100.00;97524.84;4981774;28;20370;-38
2023/07/17 04:05:24;;;;;;;4.30;2.03;;;17.80;99.90;;;17.63;100.00;97528.09;4984390;28;20034;-36
2023/07/17 04:07:51;;;;;;;4.03;2.00;;;17.70;99.90;;;17.56;100.00;97530.28;4985249;28;20034;-36
2023/07/17 04:10:17;;;;;;;5.43;2.30;;;17.70;99.90;;;17.49;100.00;97528.97;4961530;28;20034;-37
2023/07/17 04:12:43;;;;;;;3.72;2.10;;;17.60;99.90;;;17.42;100.00;97534.78;4984174;28;20065;-36
2023/07/17 04:15:09;;;;;;;4.30;2.30;;;17.50;99.90;;;17.37;100.00;97540.41;4980544;28;21052;-36
2023/07/17 04:17:35;;;;;;;4.82;2.30;;;17.50;99.90;;;17.24;100.00;97526.13;4967920;28;20221;-36
2023/07/17 04:20:02;;;;;;;3.00;1.90;;;17.40;99.90;;;17.33;100.00;97544.22;4980762;28;20179;-36
2023/07/17 04:22:27;;;;;;;4.43;2.25;;;17.40;99.90;;;17.30;100.00;97536.41;4975958;28;20902;-37
2023/07/17 04:24:53;;;;;;;5.57;2.42;;;17.40;99.90;;;17.28;100.00;97536.53;4980163;28;20502;-37
2023/07/17 04:27:19;;;;;;;3.88;2.13;;;17.40;99.90;;;17.36;100.00;97552.88;4985663;28;20050;-37
2023/07/17 04:29:44;;;;;;;3.72;2.00;;;17.40;99.90;;;17.42;100.00;97548.13;4980822;28;20506;-37
2023/07/17 04:32:10;;;;;;;4.20;2.15;;;17.50;99.90;;;17.46;100.00;97550.50;4967199;28;20182;-37
2023/07/17 04:34:36;;;;;;;3.97;2.35;;;17.50;99.90;;;17.48;100.00;97551.28;4979736;28;20417;-37
2023/07/17 04:37:02;;;;;;;3.25;1.90;;;17.60;99.90;;;17.54;100.00;97555.34;4979479;28;20514;-37
2023/07/17 04:39:28;;;;;;;3.35;2.10;;;17.60;99.90;;;17.57;100.00;97555.19;4981510;28;20087;-37
2023/07/17 04:41:56;;;;;;;3.42;1.80;;;17.70;99.90;;;17.63;100.00;97564.59;4982742;28;20129;-37
2023/07/17 04:44:21;;;;;;;2.90;2.05;;;17.70;99.90;;;17.63;100.00;97559.25;4988448;28;20042;-37
2023/07/17 04:46:47;;;;;;;6.47;2.22;;;17.80;99.90;;;17.73;100.00;97568.41;4986556;28;20592;-37
2023/07/17 04:49:13;;;;;;;4.72;2.78;;;17.80;99.90;;;17.81;100.00;97581.25;4985901;28;20390;-37
2023/07/17 04:51:38;;;;;;;4.32;2.33;;;17.90;99.90;;;17.89;100.00;97569.16;4986750;28;20109;-37
2023/07/17 04:54:04;;;;;;;3.85;2.10;;;18.00;99.90;;;18.03;100.00;97567.41;4986786;28;20529;-37
2023/07/17 04:56:30;;;;;;;4.30;2.42;;;18.10;99.90;;;18.16;100.00;97568.34;4991476;28;20029;-37
2023/07/17 04:58:57;;;;;;;5.28;2.20;;;18.20;99.90;;;18.33;100.00;97563.72;4989949;28;20072;-37
2023/07/17 05:01:23;;;;;;;3.78;2.08;;;18.40;99.90;;;18.47;100.00;97563.66;4991828;28;20095;-37
2023/07/17 05:03:48;;;;;;;5.18;2.15;;;18.50;99.90;;;18.59;99.01;97559.28;4977364;28;20329;-37
2023/07/17 05:06:14;;;;;;;5.30;2.10;;;18.60;99.90;;;18.64;98.05;97559.84;4981746;28;20038;-37
2023/07/17 05:08:52;;;;;;;4.85;2.20;;;18.80;99.90;;;18.74;97.97;97560.94;4998153;28;20045;-37
2023/07/17 05:11:18;;;;;;;5.22;2.40;;;18.80;99.90;;;18.74;96.67;97558.28;4984755;28;20117;-37
2023/07/17 05:13:43;;;;;;;4.80;2.30;;;18.90;99.90;;;18.76;97.27;97560.84;4994223;28;20579;-37
2023/07/17 05:16:09;;;;;;;4.68;1.83;;;18.80;99.90;;;18.74;97.81;97562.78;4994783;28;20037;-37
2023/07/17 05:18:34;;;;;;;3.80;2.22;;;18.80;99.90;;;18.74;99.05;97571.63;4992356;28;20038;-37
2023/07/17 05:21:00;;;;;;;5.07;2.25;;;18.90;99.90;;;18.73;98.35;97548.53;4986410;28;20041;-37
2023/07/17 05:23:26;;;;;;;4.47;2.13;;;18.90;99.90;;;19.03;96.22;97580.38;4987430;28;20069;-35
2023/07/17 05:25:56;;;;;;;6.00;2.47;;;19.10;99.90;;;19.31;93.14;97572.25;4991626;28;20026;-37
2023/07/17 05:28:22;;;;;;;5.25;2.40;;;19.40;99.90;;;19.58;91.49;97572.16;4984775;28;20053;-36
2023/07/17 05:30:52;;;;;;;6.82;2.20;;;19.60;99.90;;;19.75;90.36;97566.47;4997151;28;20033;-38
2023/07/17 05:33:19;;;;;;;4.03;2.05;;;19.80;99.90;;;19.92;87.99;97573.31;4985104;28;20131;-36
2023/07/17 05:35:45;;;;;;;4.70;2.30;;;20.00;99.90;;;20.05;88.87;97575.94;4988225;28;20073;-36
2023/07/17 05:38:11;;;;;;;3.40;2.38;;;20.10;99.90;;;20.17;87.79;97574.19;4976621;28;20184;-36
2023/07/17 05:40:39;;;;;;;6.40;2.78;;;20.20;99.90;;;20.25;88.20;97581.66;4989892;28;20038;-36
2023/07/17 05:43:05;;;;;;;3.95;2.20;;;20.30;99.90;;;20.31;89.71;97578.53;4986464;28;20030;-37
2023/07/17 05:45:31;;;;;;;3.40;2.20;;;20.40;99.90;;;20.36;93.58;97574.53;4983885;28;20879;-37
2023/07/17 05:47:56;;;;;;;3.85;2.42;;;20.40;99.90;;;20.37;94.34;97578.09;4994984;28;20345;-40
2023/07/17 05:50:22;;;;;;;4.38;2.53;;;20.40;99.90;;;20.34;93.30;97594.38;4989640;28;20463;-39
2023/07/17 05:52:49;;;;;;;3.90;2.15;;;20.30;99.90;;;20.31;90.40;97590.09;4996077;28;20510;-37
2023/07/17 05:55:15;;;;;;;6.15;2.15;;;20.30;99.90;;;20.35;90.00;97590.72;4989064;28;20088;-37
2023/07/17 05:57:41;;;;;;;3.50;1.90;;;20.30;99.90;;;20.49;91.60;97592.38;4995920;28;20375;-37
2023/07/17 06:00:12;;;;;;;4.55;2.22;;;20.40;99.90;;;20.60;88.71;97587.06;4995614;28;20046;-37
2023/07/17 06:02:39;;;;;;;4.03;2.00;;;20.60;99.90;;;20.69;86.66;97588.25;4998579;28;20515;-36
2023/07/17 06:05:05;;;;;;;8.77;3.20;;;20.70;99.90;;;20.84;83.35;97599.66;4991012;28;20041;-38
2023/07/17 06:07:33;;;;;;;4.43;2.65;;;20.80;99.90;;;20.98;81.29;97602.16;4991739;28;20038;-37
2023/07/17 06:09:59;;;;;;;5.03;2.22;;;20.90;99.90;;;21.07;79.35;97609.47;4990484;28;20026;-36
2023/07/17 06:12:25;;;;;;;5.07;2.53;;;21.10;99.90;;;21.19;78.05;97612.19;5011883;28;20100;-37
2023/07/17 06:14:50;;;;;;;4.72;2.28;;;21.10;99.90;;;21.29;76.29;97619.41;5001622;28;20056;-38
2023/07/17 06:17:16;;;;;;;4.43;2.50;;;21.30;99.90;;;21.35;78.24;97618.94;4997810;28;20042;-37
2023/07/17 06:19:42;;;;;;;4.43;2.40;;;21.30;99.90;;;21.42;76.30;97621.13;4998235;28;20057;-37
2023/07/17 06:22:07;;;;;;;5.28;2.38;;;21.40;99.90;;;21.49;76.29;97617.88;4989175;28;20092;-38
2023/07/17 06:24:33;;;;;;;6.68;2.40;;;21.40;99.90;;;21.58;74.23;97623.53;5001215;28;20065;-36
2023/07/17 06:26:59;;;;;;;5.68;2.60;;;21.50;99.90;;;21.65;72.98;97622.06;5002193;28;20497;-36
2023/07/17 06:29:25;;;;;;;5.03;2.47;;;21.60;99.90;;;21.77;70.84;97626.47;4997557;28;20341;-37
2023/07/17 06:31:51;;;;;;;6.10;2.50;;;21.70;99.90;;;21.86;70.11;97619.53;4998011;28;20034;-37
2023/07/17 06:34:18;;;;;;;6.38;2.50;;;21.80;99.90;;;21.92;68.48;97625.22;4998355;28;20069;-37
2023/07/17 06:36:44;;;;;;;5.32;2.40;;;21.90;99.90;;;22.03;68.96;97623.53;4996303;28;20115;-36
2023/07/17 06:39:10;;;;;;;12.15;4.38;;;21.90;99.90;;;22.08;67.59;97630.22;4997079;28;20044;-37
2023/07/17 06:41:36;;;;;;;4.78;2.65;;;22.00;99.90;;;22.16;66.35;97632.28;4991710;28;20406;-36
2023/07/17 06:44:02;;;;;;;4.32;2.30;;;22.10;99.90;;;22.27;65.32;97629.66;4998164;28;20096;-36
2023/07/17 06:46:27;;;;;;;5.05;2.58;;;22.20;99.90;;;22.37;64.83;97623.53;4994011;28;20037;-36
2023/07/17 06:48:53;;;;;;;9.38;2.83;;;22.20;99.90;;;22.47;64.89;97628.03;5000840;28;20033;-36
2023/07/17 06:51:19;;;;;;;3.70;2.17;;;22.30;99.90;;;22.62;63.52;97636.66;4991707;28;20602;-37
2023/07/17 06:53:44;;;;;;;5.13;2.63;;;22.40;99.90;;;22.66;60.75;97626.50;5002211;28;20029;-36
2023/07/17 06:56:11;;;;;;;5.75;2.55;;;22.50;99.90;;;22.64;60.84;97634.69;4995646;28;20401;-36
2023/07/17 06:58:36;;;;;;;3.92;2.17;;;22.50;99.70;;;22.67;60.07;97629.06;5001251;28;20383;-37
2023/07/17 07:01:03;;;;;;;7.05;2.70;;;22.60;99.60;;;22.80;59.56;97625.38;4998558;28;20532;-37
2023/07/17 07:03:29;;;;;;;7.50;3.22;;;22.70;99.70;;;22.79;55.53;97627.19;4997463;28;20183;-37
2023/07/17 07:06:04;;;;;;;4.70;2.95;;;22.70;98.00;;;22.91;55.60;97627.16;4997731;28;20026;-36
2023/07/17 07:08:31;;;;;;;11.32;3.42;;;22.80;97.80;;;22.91;53.45;97629.84;4999959;28;20034;-37
2023/07/17 07:11:00;;;;;;;6.20;2.83;;;22.80;96.90;;;22.93;52.42;97628.72;4990764;28;20045;-37
2023/07/17 07:13:26;;;;;;;7.00;3.22;;;22.90;96.50;;;22.92;54.51;97628.88;4997869;28;20026;-36
2023/07/17 07:15:52;;;;;;;5.35;3.22;;;22.90;97.10;;;22.97;51.73;97614.06;4996386;28;20061;-37
2023/07/17 07:18:19;;;;;;;4.13;2.80;;;22.90;96.30;;;23.16;51.72;97623.28;4994024;28;20048;-36
2023/07/17 07:20:47;;;;;;;5.22;2.92;;;23.00;96.00;;;23.33;52.44;97628.09;4993022;28;20248;-36
2023/07/17 07:23:13;;;;;;;6.13;3.20;;;23.10;96.30;;;23.46;51.48;97618.97;4994308;28;20025;-36
2023/07/17 07:25:39;;;;;;;6.43;3.17;;;23.30;95.90;;;23.61;50.46;97628.38;4999177;28;20030;-37
2023/07/17 07:28:05;;;;;;;7.38;3.50;;;23.40;95.30;;;23.79;49.44;97628.63;4995649;28;20045;-37
2023/07/17 07:30:31;;;;;;;7.30;3.15;;;23.50;94.70;;;23.94;49.71;97621.06;5002575;28;20489;-36
2023/07/17 07:32:57;;;;;;;5.45;3.38;;;23.60;94.70;;;24.01;48.07;97624.91;5000443;28;20022;-36
2023/07/17 07:35:22;;;;;;;5.22;3.33;;;23.80;94.00;;;24.07;48.97;97634.31;4991964;28;20325;-36
2023/07/17 07:37:48;;;;;;;7.57;3.35;;;23.80;94.20;;;24.08;47.52;97631.47;4993006;28;20030;-38
2023/07/17 07:40:15;;;;;;;8.45;3.90;;;23.90;93.20;;;23.94;43.14;97631.84;4989137;28;20565;-37
2023/07/17 07:42:42;;;;;;;5.80;3.80;;;23.90;90.30;;;23.78;45.70;97633.16;4993507;28;20172;-38
2023/07/17 07:45:10;;;;;;;4.88;3.10;;;23.70;91.20;;;23.67;45.93;97635.94;4994147;28;23445;-37
2023/07/17 07:47:36;;;;;;;7.65;3.70;;;23.60;91.30;;;23.62;49.20;97630.94;4999712;28;20096;-36
2023/07/17 07:50:03;;;;;;;7.32;3.13;;;23.60;93.30;;;23.59;50.88;97628.50;4995690;28;20034;-37
2023/07/17 07:52:29;;;;;;;6.40;3.88;;;23.60;93.40;;;23.73;48.06;97638.09;4996148;28;20025;-39
2023/07/17 07:54:54;;;;;;;6.78;4.00;;;23.60;92.80;;;23.77;46.74;97631.44;4994958;28;20026;-36
2023/07/17 07:57:20;;;;;;;5.47;3.90;;;23.70;92.80;;;23.85;46.28;97640.72;4993248;28;20379;-36
2023/07/17 07:59:48;;;;;;;7.50;3.55;;;23.80;91.50;;;23.88;47.02;97630.53;4994609;28;20541;-37
2023/07/17 08:02:14;;;;;;;6.57;3.42;;;23.80;91.90;;;23.96;45.53;97637.97;4985148;28;20314;-37
2023/07/17 08:04:40;;;;;;;7.22;4.20;;;23.90;90.90;;;23.98;45.56;97639.53;4990756;28;20407;-37
2023/07/17 08:07:07;;;;;;;9.23;3.72;;;23.90;90.90;;;23.99;44.14;97637.69;4995951;28;20037;-37
2023/07/17 08:09:32;;;;;;;6.28;3.63;;;23.90;89.40;;;24.02;43.89;97642.81;4991644;28;20164;-35
2023/07/17 08:11:58;;;;;;;7.15;3.97;;;23.90;89.20;;;24.03;43.47;97641.81;4988532;28;20441;-34
2023/07/17 08:14:24;;;;;;;6.47;3.97;;;24.00;88.40;;;23.91;41.88;97634.81;4992579;28;20041;-37
2023/07/17 08:16:50;;;;;;;5.75;3.80;;;23.90;85.30;;;24.01;42.22;97638.38;4991229;28;20034;-36
2023/07/17 08:19:18;;;;;;;5.28;3.80;;;23.90;85.30;;;24.20;41.65;97643.84;4994077;28;20069;-36
2023/07/17 08:21:43;;;;;;;6.00;3.90;;;24.10;86.60;;;24.33;42.50;97638.22;4989839;28;20033;-35
2023/07/17 08:24:09;;;;;;;6.90;4.20;;;24.20;85.10;;;24.33;43.38;97630.13;4990943;28;20030;-36
2023/07/17 08:26:38;;;;;;;7.47;3.67;;;24.30;87.30;;;24.53;42.45;97655.34;4993888;28;20185;-37
2023/07/17 08:29:04;;;;;;;9.18;3.88;;;24.40;86.50;;;24.58;40.56;97650.41;4992416;28;20034;-36
2023/07/17 08:31:33;;;;;;;7.00;3.42;;;24.50;82.70;;;24.76;39.20;97642.50;4987837;28;20381;-38
2023/07/17 08:34:00;;;;;;;5.70;3.53;;;24.70;82.20;;;24.95;39.49;97655.13;4997634;28;20086;-37
2023/07/17 08:36:27;;;;;;;6.20;3.40;;;24.90;81.00;;;24.98;40.80;97651.31;4990138;28;20120;-39
2023/07/17 08:38:53;;;;;;;7.10;3.47;;;25.00;82.00;;;25.06;39.64;97651.44;4995860;28;20038;-37
2023/07/17 08:41:19;;;;;;;7.57;3.55;;;25.00;80.30;;;25.00;39.69;97646.63;4980554;28;20247;-38
2023/07/17 08:43:45;;;;;;;5.43;3.20;;;25.00;80.70;;;25.04;39.56;97650.72;4990872;28;20523;-37
2023/07/17 08:46:12;;;;;;;6.88;3.53;;;25.00;79.20;;;24.98;37.40;97639.66;4978907;28;20109;-37
2023/07/17 08:48:45;;;;;;;9.00;4.10;;;25.00;75.60;;;24.85;37.71;97645.31;4988058;28;20060;-38
2023/07/17 08:51:11;;;;;;;;;;;25.00;74.00;;;24.96;38.72;97651.44;4981394;28;20092;-38
2023/07/17 08:53:43;;;;;;;6.88;3.10;;;25.00;76.10;;;25.00;38.59;97649.31;4981678;28;19917;-37
2023/07/17 08:56:11;;;;;;;6.80;3.42;;;25.00;76.10;;;25.03;38.05;97643.63;4986416;28;20033;-39
2023/07/17 08:58:37;;;;;;;6.68;3.42;;;25.10;76.00;;;25.24;38.23;97662.41;4991243;28;20129;-38
2023/07/17 09:01:03;;;;;;;5.72;3.03;;;25.20;75.60;;;25.40;38.84;97655.59;4990329;28;20120;-38
2023/07/17 09:03:32;;;;;;;8.63;3.50;;;25.40;77.00;;;25.71;39.43;97658.94;4991648;28;20382;-37
2023/07/17 09:06:01;;;;;;;7.40;3.67;;;25.70;78.70;;;25.82;38.31;97658.75;4993747;28;20045;-37
2023/07/17 09:08:26;;;;;;;5.60;3.42;;;25.90;76.50;;;25.78;38.38;97664.63;4991280;28;20040;-37
2023/07/17 09:11:06;;;;;;;4.75;3.45;;;25.90;75.10;;;25.86;39.01;97656.59;4987625;28;20042;-37
2023/07/17 09:13:40;;;;;;;6.90;3.80;;;25.90;76.10;;;25.80;40.33;97659.91;4991146;28;20529;-37
2023/07/17 09:16:22;;;;;;;6.68;3.22;;;25.90;79.30;;;25.71;38.98;97650.81;4994360;28;20038;-39
2023/07/17 09:18:50;;;;;;;8.65;3.72;;;25.70;76.60;;;25.52;39.73;97659.84;4986926;28;20443;-37
2023/07/17 09:21:23;;;;;;;5.10;3.80;;;25.60;77.00;;;25.34;40.79;97663.25;4984168;28;20033;-37
2023/07/17 09:23:52;;;;;;;6.82;3.35;;;25.40;78.70;;;25.27;40.25;97653.19;4991416;28;20124;-38
2023/07/17 09:26:21;;;;;;;6.78;3.72;;;25.30;77.90;;;25.02;40.90;97651.88;4979820;28;20984;-38
2023/07/17 09:28:50;;;;;;;8.27;3.78;;;25.10;77.90;;;24.93;40.84;97657.13;4987526;28;20033;-37
2023/07/17 09:31:32;;;;;;;7.60;4.07;;;25.10;78.70;;;25.01;40.66;97656.41;4986388;28;20498;-39
2023/07/17 09:34:06;;;;;;;6.07;3.80;;;25.10;78.50;;;24.82;43.16;97654.56;4998492;28;20454;-37
2023/07/17 09:36:32;;;;;;;4.40;3.78;;;25.00;81.30;;;24.68;42.56;97644.19;4980220;28;20444;-37
2023/07/17 09:38:59;;;;;;;5.50;3.58;;;24.80;81.40;;;24.52;42.82;97655.47;4992555;28;20030;-37
2023/07/17 09:41:28;;;;;;;6.18;3.63;;;24.60;81.10;;;24.45;43.23;97649.75;4987316;28;20057;-38
2023/07/17 09:44:08;;;;;;;9.15;4.43;;;24.50;82.60;;;24.42;43.97;97646.47;4991798;28;20134;-39
2023/07/17 09:46:38;;;;;;;7.50;3.97;;;24.50;81.60;;;24.49;43.19;97642.25;4990551;28;20064;-40
2023/07/17 09:49:08;;;;;;;7.13;3.97;;;24.60;82.30;;;24.71;42.99;97647.44;4992868;28;20129;-38
2023/07/17 09:51:35;;;;;;;6.13;3.80;;;24.80;83.00;;;24.97;40.69;97644.19;4986551;28;20041;-39
2023/07/17 09:54:03;;;;;;;6.03;3.75;;;25.00;78.20;;;25.07;39.92;97644.19;4990421;28;20092;-39
2023/07/17 09:56:31;;;;;;;7.90;3.92;;;25.20;77.10;;;25.21;40.08;97646.44;4990411;28;20034;-38
2023/07/17 09:59:14;;;;;;;5.75;3.30;;;25.30;77.00;;;25.42;39.61;97648.19;4993546;28;20037;-37
2023/07/17 10:01:45;;;;;;;8.93;3.92;;;25.40;76.80;;;25.48;40.27;97636.81;4990345;28;20116;-41
2023/07/17 10:04:13;;;;;;;9.63;4.20;;;25.50;77.20;;;25.48;39.32;97653.88;4992330;28;20035;-40
2023/07/17 10:06:41;;;;;;;5.60;3.75;;;25.60;75.60;;;25.61;38.89;97650.00;4992610;28;20052;-40
2023/07/17 10:09:11;;;;;;;6.95;3.80;;;25.60;74.50;;;25.77;40.13;97647.56;4989492;28;20042;-38
2023/07/17 10:11:37;;;;;;;5.55;3.63;;;25.80;76.80;;;25.98;39.29;97644.66;4989284;28;20038;-38
2023/07/17 10:14:03;;;;;;;5.60;4.00;;;25.90;76.80;;;26.03;38.90;97649.63;4987578;28;20026;-38
2023/07/17 10:16:29;;;;;;;5.43;3.95;;;26.00;73.90;;;25.98;38.06;97641.13;4992763;28;20034;-37